createdAt,value
2023-05-20T00:04:15.812Z,26.0472
2023-05-20T00:09:17.416Z,27.82514
2023-05-20T00:14:18.806Z,28.40487
2023-05-20T00:19:20.311Z,28.35119
2023-05-20T00:24:21.753Z,28.80863
2023-05-20T00:29:23.171Z,28.56275
2023-05-20T00:34:24.555Z,28.07355
2023-05-20T00:39:25.981Z,27.68029
2023-05-20T00:44:27.381Z,28.21555
2023-05-20T00:49:28.793Z,27.80227
2023-05-20T00:54:30.192Z,28.20888
2023-05-20T00:59:31.614Z,28.4179
2023-05-20T01:04:33.006Z,28.19903
2023-05-20T01:09:34.433Z,27.5421
2023-05-20T01:14:35.845Z,27.9233
2023-05-20T01:19:37.399Z,28.37025
2023-05-20T01:24:38.846Z,28.37184
2023-05-20T01:29:40.258Z,27.89439
2023-05-20T01:34:41.663Z,28.06307
2023-05-20T01:39:43.195Z,27.90328
2023-05-20T01:44:44.619Z,26.98906
2023-05-20T01:49:46.112Z,27.84992
2023-05-20T01:54:47.538Z,27.03639
2023-05-20T01:59:48.993Z,27.63486
2023-05-20T02:04:50.402Z,27.38931
2023-05-20T02:09:51.873Z,26.92108
2023-05-20T02:14:53.271Z,26.91536
2023-05-20T02:19:54.681Z,26.87851
2023-05-20T02:24:56.113Z,26.28608
2023-05-20T02:29:57.487Z,26.7254
2023-05-20T02:34:58.906Z,26.38328
2023-05-20T02:40:00.328Z,24.8487
2023-05-20T02:45:01.751Z,25.88679
2023-05-20T02:50:03.194Z,25.46399
2023-05-20T02:55:04.573Z,25.30898
2023-05-20T03:00:05.956Z,25.59232
2023-05-20T03:05:07.362Z,25.02881
2023-05-20T03:10:08.761Z,24.45894
2023-05-20T03:15:10.267Z,23.14579
2023-05-20T03:20:11.663Z,23.57651
2023-05-20T03:25:13.086Z,23.51902
2023-05-20T03:30:14.485Z,23.70611
2023-05-20T03:35:16.033Z,23.28936
2023-05-20T03:40:17.436Z,23.2198
2023-05-20T03:45:18.860Z,23.63687
2023-05-20T03:50:20.318Z,23.40308
2023-05-20T03:55:21.749Z,23.39514
2023-05-20T04:00:23.146Z,23.40721
2023-05-20T04:05:24.625Z,22.4889
2023-05-20T04:10:26.096Z,22.28656
2023-05-20T04:15:27.480Z,22.18873
2023-05-20T04:20:28.870Z,22.68774
2023-05-20T04:25:30.315Z,22.52543
2023-05-20T04:30:31.761Z,22.63533
2023-05-20T04:35:33.343Z,19.95764
2023-05-20T04:40:34.922Z,20.33944
2023-05-20T04:45:36.349Z,19.61333
2023-05-20T04:50:37.741Z,20.1803
2023-05-20T04:55:39.149Z,20.52081
2023-05-20T05:00:40.546Z,20.79556
2023-05-20T05:05:41.931Z,20.9493
2023-05-20T05:10:43.322Z,20.86925
2023-05-20T05:15:44.777Z,19.5066
2023-05-20T05:20:46.236Z,18.72428
2023-05-20T05:25:47.627Z,19.42973
2023-05-20T05:30:49.026Z,19.9119
2023-05-20T05:35:50.411Z,19.7102
2023-05-20T05:40:51.835Z,19.43609
2023-05-20T05:45:53.248Z,18.03661
2023-05-20T05:50:54.677Z,18.59214
2023-05-20T05:55:56.417Z,18.47748
2023-05-20T06:00:57.914Z,17.62687
2023-05-20T06:05:59.378Z,18.59405
2023-05-20T06:11:00.819Z,17.66753
2023-05-20T06:16:02.214Z,17.73233
2023-05-20T06:21:03.642Z,18.24053
2023-05-20T06:26:05.099Z,18.312
2023-05-20T06:31:06.690Z,18.55562
2023-05-20T06:36:08.174Z,16.48692
2023-05-20T06:41:09.533Z,17.09009
2023-05-20T06:46:10.913Z,17.57383
2023-05-20T06:51:12.347Z,17.35054
2023-05-20T06:56:13.778Z,17.10946
2023-05-20T07:01:17.837Z,17.26002
2023-05-20T07:06:19.634Z,16.11372
2023-05-20T07:11:21.006Z,15.50643
2023-05-20T07:16:22.397Z,16.05178
2023-05-20T07:21:23.799Z,16.56569
2023-05-20T07:26:25.222Z,16.38338
2023-05-20T07:31:26.618Z,16.18169
2023-05-20T07:36:28.169Z,16.49042
2023-05-20T07:41:29.594Z,16.34463
2023-05-20T07:46:31.144Z,16.26745
2023-05-20T07:51:32.591Z,15.62808
2023-05-20T07:56:34.052Z,15.5779
2023-05-20T08:01:35.453Z,16.26205
2023-05-20T08:06:36.833Z,15.68112
2023-05-20T08:11:38.216Z,15.9403
2023-05-20T08:16:39.663Z,16.0124
2023-05-20T08:21:41.052Z,15.49119
2023-05-20T08:26:42.427Z,14.75273
2023-05-20T08:31:43.955Z,15.81738
2023-05-20T08:36:45.411Z,16.06735
2023-05-20T08:46:47.294Z,16.01748
2023-05-20T08:51:48.717Z,16.3081
2023-05-20T08:56:50.142Z,16.0178
2023-05-20T09:01:51.679Z,15.41591
2023-05-20T09:06:53.111Z,15.10814
2023-05-20T09:11:54.551Z,15.19834
2023-05-20T09:16:55.962Z,15.47785
2023-05-20T09:21:57.354Z,15.67954
2023-05-20T09:26:58.760Z,16.27348
2023-05-20T09:32:00.189Z,15.82755
2023-05-20T09:37:01.619Z,16.61937
2023-05-20T09:42:04.014Z,15.20692
2023-05-20T09:47:08.292Z,15.83263
2023-05-20T09:52:10.182Z,15.57821
2023-05-20T09:57:11.537Z,16.034
2023-05-20T10:02:12.982Z,16.26967
2023-05-20T10:07:14.387Z,16.1296
2023-05-20T10:12:15.840Z,15.27934
2023-05-20T10:17:17.252Z,14.04604
2023-05-20T10:22:18.700Z,15.01
2023-05-20T10:27:20.132Z,15.40225
2023-05-20T10:32:21.561Z,15.41845
2023-05-20T10:37:22.968Z,15.38828
2023-05-20T10:42:24.346Z,15.18755
2023-05-20T10:47:26.600Z,15.26155
2023-05-20T10:52:28.237Z,15.06622
2023-05-20T10:57:29.673Z,15.29617
2023-05-20T11:02:31.138Z,15.31682
2023-05-20T11:07:32.621Z,14.89343
2023-05-20T11:12:34.043Z,14.36206
2023-05-20T11:17:35.566Z,14.43766
2023-05-20T11:22:37.015Z,14.75718
2023-05-20T11:27:38.533Z,14.04477
2023-05-20T11:32:40.018Z,14.09781
2023-05-20T11:37:41.464Z,14.39351
2023-05-20T11:42:42.884Z,14.33538
2023-05-20T11:47:44.310Z,14.39954
2023-05-20T11:52:45.737Z,12.93758
2023-05-20T11:57:47.137Z,13.83769
2023-05-20T12:02:48.631Z,13.90692
2023-05-20T12:07:50.096Z,14.10003
2023-05-20T12:12:51.519Z,13.92948
2023-05-20T12:17:52.960Z,13.99713
2023-05-20T12:22:54.401Z,13.65252
2023-05-20T12:27:55.795Z,13.98919
2023-05-20T12:32:57.336Z,13.66395
2023-05-20T12:37:58.820Z,13.65538
2023-05-20T12:43:00.216Z,13.35396
2023-05-20T12:48:01.778Z,13.36063
2023-05-20T12:53:03.304Z,13.55914
2023-05-20T12:58:04.705Z,13.4791
2023-05-20T13:03:06.341Z,13.34412
2023-05-20T13:08:07.821Z,13.64553
2023-05-20T13:13:09.366Z,13.62965
2023-05-20T13:18:10.920Z,12.96934
2023-05-20T13:23:12.411Z,13.66205
2023-05-20T13:28:13.836Z,14.18071
2023-05-20T13:33:15.228Z,14.64855
2023-05-20T13:38:16.637Z,14.44623
2023-05-20T13:43:18.121Z,14.69079
2023-05-20T13:48:19.583Z,15.09448
2023-05-20T13:53:21.036Z,15.49627
2023-05-20T13:58:22.417Z,15.54455
2023-05-20T14:03:23.923Z,16.11499
2023-05-20T14:08:25.406Z,16.75786
2023-05-20T14:13:26.770Z,16.90682
2023-05-20T14:18:28.326Z,16.01494
2023-05-20T14:23:29.709Z,16.66416
2023-05-20T14:28:31.061Z,16.85505
2023-05-20T14:33:32.488Z,17.35721
2023-05-20T14:38:33.915Z,17.0831
2023-05-20T14:43:35.284Z,17.68151
2023-05-20T14:48:36.751Z,17.63736
2023-05-20T14:53:38.172Z,18.04328
2023-05-20T14:58:39.570Z,18.54291
2023-05-20T15:03:41.179Z,19.08256
2023-05-20T15:08:42.684Z,19.78135
2023-05-20T15:13:44.219Z,18.94789
2023-05-20T15:18:45.686Z,19.73339
2023-05-20T15:23:47.162Z,20.23525
2023-05-20T15:28:48.571Z,20.6107
2023-05-20T15:33:50.108Z,21.13766
2023-05-20T15:38:51.551Z,21.85425
2023-05-20T15:43:52.945Z,22.45809
2023-05-20T15:48:54.431Z,21.84758
2023-05-20T15:53:55.832Z,22.85133
2023-05-20T15:58:57.347Z,23.41991
2023-05-20T16:03:58.864Z,23.13245
2023-05-20T16:09:00.316Z,22.74524
2023-05-20T16:14:01.769Z,23.92688
2023-05-20T16:19:03.283Z,24.44147
2023-05-20T16:24:04.847Z,23.72644
2023-05-20T16:29:06.260Z,24.35094
2023-05-20T16:34:07.825Z,25.41698
2023-05-20T16:39:09.246Z,23.4304
2023-05-20T16:44:10.761Z,23.11085
2023-05-20T16:49:12.182Z,23.48503
2023-05-20T16:54:13.570Z,22.79924
2023-05-20T16:59:14.983Z,23.22107
2023-05-20T17:04:16.405Z,25.18763
2023-05-20T17:09:17.817Z,24.81471
2023-05-20T17:14:19.212Z,24.6346
2023-05-20T17:19:20.596Z,24.61681
2023-05-20T17:24:22.148Z,25.52371
2023-05-20T17:29:23.584Z,25.44112
2023-05-20T17:34:24.961Z,25.58724
2023-05-20T17:39:26.405Z,25.04691
2023-05-20T17:44:27.837Z,25.30231
2023-05-20T17:49:29.245Z,26.04085
2023-05-20T17:54:30.685Z,25.93285
2023-05-20T17:59:32.179Z,25.41062
2023-05-20T18:04:33.566Z,26.0885
2023-05-20T18:09:34.966Z,26.88645
2023-05-20T18:14:36.323Z,25.67745
2023-05-20T18:19:37.749Z,27.49445
2023-05-20T18:24:39.184Z,27.87851
2023-05-20T18:29:40.557Z,27.47952
2023-05-20T18:34:42.008Z,27.83149
2023-05-20T18:39:43.413Z,27.13645
2023-05-20T18:44:44.792Z,28.1679
2023-05-20T18:49:46.312Z,27.37311
2023-05-20T18:54:47.742Z,26.95634
2023-05-20T18:59:49.149Z,28.15646
2023-05-20T19:04:50.601Z,27.23238
2023-05-20T19:09:51.968Z,26.05451
2023-05-20T19:14:53.431Z,24.53867
2023-05-20T19:19:54.870Z,24.98624
2023-05-20T19:24:56.265Z,25.76926
2023-05-20T19:29:57.650Z,25.50751
2023-05-20T19:34:59.071Z,26.12884
2023-05-20T19:40:00.471Z,26.20603
2023-05-20T19:45:02.124Z,27.22349
2023-05-20T19:50:03.529Z,27.23874
2023-05-20T19:55:04.956Z,27.16949
2023-05-20T20:00:06.389Z,24.73244
2023-05-20T20:05:07.886Z,25.44493
2023-05-20T20:10:09.273Z,23.48344
2023-05-20T20:15:10.652Z,21.22564
2023-05-20T20:20:12.046Z,22.98411
2023-05-20T20:25:13.530Z,22.12012
2023-05-20T20:30:14.923Z,23.19915
2023-05-20T20:35:16.373Z,24.68828
2023-05-20T20:40:17.779Z,23.5006
2023-05-20T20:45:19.206Z,24.66065
2023-05-20T20:50:20.591Z,24.58822
2023-05-20T20:55:21.983Z,24.04759
2023-05-20T21:00:23.487Z,24.67463
2023-05-20T21:05:24.970Z,24.18132
2023-05-20T21:10:26.395Z,25.35281
2023-05-20T21:15:27.788Z,26.37503
2023-05-20T21:20:29.182Z,27.97857
2023-05-20T21:25:30.620Z,28.52622
2023-05-20T21:30:32.112Z,27.36263
2023-05-20T21:35:33.846Z,26.01576
2023-05-20T21:40:35.413Z,26.38773
2023-05-20T21:45:36.950Z,26.11137
2023-05-20T21:50:38.687Z,25.77466
2023-05-20T21:55:40.118Z,25.32168
2023-05-20T22:00:41.498Z,25.35376
2023-05-20T22:05:42.903Z,25.43032
2023-05-20T22:10:44.389Z,25.41444
2023-05-20T22:15:45.820Z,24.48213
2023-05-20T22:20:47.245Z,25.66888
2023-05-20T22:25:48.631Z,25.32359
2023-05-20T22:30:50.048Z,23.80617
2023-05-20T22:35:51.482Z,23.23568
2023-05-20T22:40:52.883Z,23.63655
2023-05-20T22:45:54.350Z,22.99363
2023-05-20T22:50:55.770Z,23.43993
2023-05-20T22:55:57.276Z,22.65852
2023-05-20T23:00:58.667Z,22.20588
2023-05-20T23:06:00.162Z,22.99268
2023-05-20T23:11:01.519Z,22.09121
2023-05-20T23:16:02.936Z,22.21636
2023-05-20T23:21:04.383Z,22.44189
2023-05-20T23:26:05.870Z,22.08454
2023-05-20T23:31:07.417Z,22.14712
2023-05-20T23:36:08.880Z,22.51844
2023-05-20T23:41:10.274Z,22.07279
2023-05-20T23:46:11.761Z,21.9416
2023-05-20T23:51:13.169Z,22.44951
2023-05-20T23:56:14.595Z,22.68647
